DNSO

Sadiq Abubakar III International Airport

Sokoto, Nigeria
TAF DNSO 181530Z 1818/1924 12010KT CAVOK
Issued Valid From Valid To
Jan-18 @ 15:30 UTC
(5 hours ago)
Jan-18 @ 18:00 UTC
(2 hours ago)
Jan-20 @ 00:00 UTC
(-1 days ago)
Jan-18 @ 18:00 to Jan-20 @ 00:00
TAF DNSO 181530Z 1818/1924 12010KT CAVOK
Wind Visibility Clouds Conditions
120° at 10 knots 10,000+ meters
  • No significant clouds
TAF DNSO 181530Z 1818/1924 12010KT CAVOK
Issued Jan-18 @ 15:30 UTC
(5 hours ago)
Valid From Jan-18 @ 18:00 UTC
(2 hours ago)
Valid To Jan-20 @ 00:00 UTC
(-1 days ago)
Jan-18 @ 18:00 - Jan-20 @ 00:00
Wind Visibility
120° at 10 knots 10,000+ meters
Clouds
  • No significant clouds
Conditions